sensor_id;sensor_type;location;lat;lon;timestamp;temperature;humidity
68433;DHT22;55412;51.350;17.056;2023-03-01T00:01:30;-4.70;99.90
68433;DHT22;55412;51.350;17.056;2023-03-01T00:03:58;-4.60;99.90
68433;DHT22;55412;51.350;17.056;2023-03-01T00:06:26;-4.60;99.90
68433;DHT22;55412;51.350;17.056;2023-03-01T00:08:53;-4.60;99.90
68433;DHT22;55412;51.350;17.056;2023-03-01T00:11:22;-4.70;99.90
68433;DHT22;55412;51.350;17.056;2023-03-01T00:13:54;-4.70;99.90
68433;DHT22;55412;51.350;17.056;2023-03-01T00:16:36;-4.70;99.90
68433;DHT22;55412;51.350;17.056;2023-03-01T00:19:15;-4.70;99.90
68433;DHT22;55412;51.350;17.056;2023-03-01T00:21:43;-4.60;99.90
68433;DHT22;55412;51.350;17.056;2023-03-01T00:24:09;-4.60;99.90
68433;DHT22;55412;51.350;17.056;2023-03-01T00:26:36;-4.50;99.90
68433;DHT22;55412;51.350;17.056;2023-03-01T00:29:02;-4.50;99.90
68433;DHT22;55412;51.350;17.056;2023-03-01T00:31:30;-4.50;99.90
68433;DHT22;55412;51.350;17.056;2023-03-01T00:33:59;-4.50;99.90
68433;DHT22;55412;51.350;17.056;2023-03-01T00:36:37;-4.50;99.90
68433;DHT22;55412;51.350;17.056;2023-03-01T00:39:05;-4.50;99.90
68433;DHT22;55412;51.350;17.056;2023-03-01T00:41:33;-4.50;99.90
68433;DHT22;55412;51.350;17.056;2023-03-01T00:44:00;-4.60;99.90
68433;DHT22;55412;51.350;17.056;2023-03-01T00:46:27;-4.60;99.90
68433;DHT22;55412;51.350;17.056;2023-03-01T00:48:55;-4.60;99.90
68433;DHT22;55412;51.350;17.056;2023-03-01T00:51:25;-4.60;99.90
68433;DHT22;55412;51.350;17.056;2023-03-01T00:53:54;-4.60;99.90
68433;DHT22;55412;51.350;17.056;2023-03-01T00:56:24;-4.60;99.90
68433;DHT22;55412;51.350;17.056;2023-03-01T00:58:50;-4.60;99.90
68433;DHT22;55412;51.350;17.056;2023-03-01T01:01:25;-4.70;99.90
68433;DHT22;55412;51.350;17.056;2023-03-01T01:04:02;-4.70;99.90
68433;DHT22;55412;51.350;17.056;2023-03-01T01:06:35;-4.80;99.90
68433;DHT22;55412;51.350;17.056;2023-03-01T01:09:10;-4.90;99.90
68433;DHT22;55412;51.350;17.056;2023-03-01T01:11:47;-4.90;99.90
68433;DHT22;55412;51.350;17.056;2023-03-01T01:14:15;-4.90;99.90
68433;DHT22;55412;51.350;17.056;2023-03-01T01:16:41;-5.00;99.90
68433;DHT22;55412;51.350;17.056;2023-03-01T01:19:10;-5.00;99.90
68433;DHT22;55412;51.350;17.056;2023-03-01T01:21:36;-5.10;99.90
68433;DHT22;55412;51.350;17.056;2023-03-01T01:24:04;-5.10;99.90
68433;DHT22;55412;51.350;17.056;2023-03-01T01:26:33;-5.10;99.90
68433;DHT22;55412;51.350;17.056;2023-03-01T01:29:01;-5.10;99.90
68433;DHT22;55412;51.350;17.056;2023-03-01T01:31:28;-5.10;99.90
68433;DHT22;55412;51.350;17.056;2023-03-01T01:33:56;-5.20;99.90
68433;DHT22;55412;51.350;17.056;2023-03-01T01:36:22;-5.20;99.90
68433;DHT22;55412;51.350;17.056;2023-03-01T01:38:48;-5.20;99.90
68433;DHT22;55412;51.350;17.056;2023-03-01T01:41:15;-5.20;99.90
68433;DHT22;55412;51.350;17.056;2023-03-01T01:43:44;-5.20;99.90
68433;DHT22;55412;51.350;17.056;2023-03-01T01:46:23;-5.20;99.90
68433;DHT22;55412;51.350;17.056;2023-03-01T01:49:00;-5.30;99.90
68433;DHT22;55412;51.350;17.056;2023-03-01T01:51:35;-5.30;99.90
68433;DHT22;55412;51.350;17.056;2023-03-01T01:54:17;-5.40;99.90
68433;DHT22;55412;51.350;17.056;2023-03-01T01:56:53;-5.40;99.90
68433;DHT22;55412;51.350;17.056;2023-03-01T01:59:23;-5.40;99.90
68433;DHT22;55412;51.350;17.056;2023-03-01T02:01:51;-5.40;99.90
68433;DHT22;55412;51.350;17.056;2023-03-01T02:04:18;-5.40;99.90
68433;DHT22;55412;51.350;17.056;2023-03-01T02:07:15;-5.40;99.90
68433;DHT22;55412;51.350;17.056;2023-03-01T02:09:49;-5.50;99.90
68433;DHT22;55412;51.350;17.056;2023-03-01T02:12:18;-5.50;99.90
68433;DHT22;55412;51.350;17.056;2023-03-01T02:14:46;-5.50;99.90
68433;DHT22;55412;51.350;17.056;2023-03-01T02:17:14;-5.50;99.90
68433;DHT22;55412;51.350;17.056;2023-03-01T02:20:16;-5.50;99.90
68433;DHT22;55412;51.350;17.056;2023-03-01T02:22:53;-5.60;99.90
68433;DHT22;55412;51.350;17.056;2023-03-01T02:30:43;-5.60;99.90
68433;DHT22;55412;51.350;17.056;2023-03-01T02:33:31;-5.60;99.90
68433;DHT22;55412;51.350;17.056;2023-03-01T02:36:05;-5.60;99.90
68433;DHT22;55412;51.350;17.056;2023-03-01T02:38:33;-5.60;99.90
68433;DHT22;55412;51.350;17.056;2023-03-01T02:41:00;-5.50;99.90
68433;DHT22;55412;51.350;17.056;2023-03-01T02:43:30;-5.50;99.90
68433;DHT22;55412;51.350;17.056;2023-03-01T02:45:59;-5.50;99.90
68433;DHT22;55412;51.350;17.056;2023-03-01T02:48:40;-5.50;99.90
68433;DHT22;55412;51.350;17.056;2023-03-01T02:51:46;-5.50;99.90
68433;DHT22;55412;51.350;17.056;2023-03-01T02:54:31;-5.60;99.90
68433;DHT22;55412;51.350;17.056;2023-03-01T02:57:02;-5.60;99.90
68433;DHT22;55412;51.350;17.056;2023-03-01T02:59:31;-5.70;99.90
68433;DHT22;55412;51.350;17.056;2023-03-01T03:02:05;-5.70;99.90
68433;DHT22;55412;51.350;17.056;2023-03-01T03:04:32;-5.70;99.90
68433;DHT22;55412;51.350;17.056;2023-03-01T03:06:59;-5.70;99.90
68433;DHT22;55412;51.350;17.056;2023-03-01T03:09:25;-5.70;99.90
68433;DHT22;55412;51.350;17.056;2023-03-01T03:11:51;-5.80;99.90
68433;DHT22;55412;51.350;17.056;2023-03-01T03:14:17;-5.80;99.90
68433;DHT22;55412;51.350;17.056;2023-03-01T03:16:46;-5.90;99.90
68433;DHT22;55412;51.350;17.056;2023-03-01T03:19:14;-5.90;99.90
68433;DHT22;55412;51.350;17.056;2023-03-01T03:21:42;-5.90;99.90
68433;DHT22;55412;51.350;17.056;2023-03-01T03:24:08;-5.90;99.90
68433;DHT22;55412;51.350;17.056;2023-03-01T03:26:34;-5.90;99.90
68433;DHT22;55412;51.350;17.056;2023-03-01T03:29:00;-5.90;99.90
68433;DHT22;55412;51.350;17.056;2023-03-01T03:31:27;-6.00;99.90
68433;DHT22;55412;51.350;17.056;2023-03-01T03:33:54;-5.90;99.90
68433;DHT22;55412;51.350;17.056;2023-03-01T03:36:22;-6.00;99.90
68433;DHT22;55412;51.350;17.056;2023-03-01T03:38:49;-6.00;99.90
68433;DHT22;55412;51.350;17.056;2023-03-01T03:41:16;-6.00;99.90
68433;DHT22;55412;51.350;17.056;2023-03-01T03:43:42;-6.00;99.90
68433;DHT22;55412;51.350;17.056;2023-03-01T03:46:10;-6.00;99.90
68433;DHT22;55412;51.350;17.056;2023-03-01T03:48:41;-6.00;99.90
68433;DHT22;55412;51.350;17.056;2023-03-01T03:51:14;-6.00;99.90
68433;DHT22;55412;51.350;17.056;2023-03-01T03:53:42;-6.00;99.90
68433;DHT22;55412;51.350;17.056;2023-03-01T03:56:09;-6.00;99.90
68433;DHT22;55412;51.350;17.056;2023-03-01T03:58:36;-6.00;99.90
68433;DHT22;55412;51.350;17.056;2023-03-01T04:01:02;-6.10;99.90
68433;DHT22;55412;51.350;17.056;2023-03-01T04:03:30;-6.10;99.90
68433;DHT22;55412;51.350;17.056;2023-03-01T04:06:01;-6.10;99.90
68433;DHT22;55412;51.350;17.056;2023-03-01T04:08:28;-6.10;99.90
68433;DHT22;55412;51.350;17.056;2023-03-01T04:11:00;-6.10;99.90
68433;DHT22;55412;51.350;17.056;2023-03-01T04:13:45;-6.20;99.90
68433;DHT22;55412;51.350;17.056;2023-03-01T04:16:11;-6.20;99.90
68433;DHT22;55412;51.350;17.056;2023-03-01T04:18:37;-6.30;99.90
68433;DHT22;55412;51.350;17.056;2023-03-01T04:21:04;-6.30;99.90
68433;DHT22;55412;51.350;17.056;2023-03-01T04:23:30;-6.30;99.90
68433;DHT22;55412;51.350;17.056;2023-03-01T04:25:57;-6.30;99.90
68433;DHT22;55412;51.350;17.056;2023-03-01T04:28:26;-6.30;99.90
68433;DHT22;55412;51.350;17.056;2023-03-01T04:30:56;-6.30;99.90
68433;DHT22;55412;51.350;17.056;2023-03-01T04:33:24;-6.30;99.90
68433;DHT22;55412;51.350;17.056;2023-03-01T04:35:50;-6.40;99.90
68433;DHT22;55412;51.350;17.056;2023-03-01T04:38:18;-6.40;99.90
68433;DHT22;55412;51.350;17.056;2023-03-01T04:40:45;-6.40;99.90
68433;DHT22;55412;51.350;17.056;2023-03-01T04:43:11;-6.40;99.90
68433;DHT22;55412;51.350;17.056;2023-03-01T04:45:40;-6.40;99.90
68433;DHT22;55412;51.350;17.056;2023-03-01T04:48:07;-6.40;99.90
68433;DHT22;55412;51.350;17.056;2023-03-01T04:50:33;-6.30;99.90
68433;DHT22;55412;51.350;17.056;2023-03-01T04:52:59;-6.30;99.90
68433;DHT22;55412;51.350;17.056;2023-03-01T04:55:26;-6.30;99.90
68433;DHT22;55412;51.350;17.056;2023-03-01T04:57:54;-6.30;99.90
68433;DHT22;55412;51.350;17.056;2023-03-01T05:00:21;-6.30;99.90
68433;DHT22;55412;51.350;17.056;2023-03-01T05:02:52;-6.30;99.90
68433;DHT22;55412;51.350;17.056;2023-03-01T05:05:22;-6.30;99.90
68433;DHT22;55412;51.350;17.056;2023-03-01T05:07:52;-6.30;99.90
68433;DHT22;55412;51.350;17.056;2023-03-01T05:10:19;-6.30;99.90
68433;DHT22;55412;51.350;17.056;2023-03-01T05:12:45;-6.40;99.90
68433;DHT22;55412;51.350;17.056;2023-03-01T05:15:12;-6.40;99.90
68433;DHT22;55412;51.350;17.056;2023-03-01T05:17:38;-6.30;99.90
68433;DHT22;55412;51.350;17.056;2023-03-01T05:20:04;-6.30;99.90
68433;DHT22;55412;51.350;17.056;2023-03-01T05:22:34;-6.30;99.90
68433;DHT22;55412;51.350;17.056;2023-03-01T05:25:01;-6.30;99.90
68433;DHT22;55412;51.350;17.056;2023-03-01T05:27:28;-6.30;99.90
68433;DHT22;55412;51.350;17.056;2023-03-01T05:29:55;-6.30;99.90
68433;DHT22;55412;51.350;17.056;2023-03-01T05:32:22;-6.40;99.90
68433;DHT22;55412;51.350;17.056;2023-03-01T05:34:48;-6.40;99.90
68433;DHT22;55412;51.350;17.056;2023-03-01T05:37:14;-6.30;99.90
68433;DHT22;55412;51.350;17.056;2023-03-01T05:39:40;-6.30;99.90
68433;DHT22;55412;51.350;17.056;2023-03-01T05:42:11;-6.30;99.90
68433;DHT22;55412;51.350;17.056;2023-03-01T05:44:37;-6.20;99.90
68433;DHT22;55412;51.350;17.056;2023-03-01T05:47:03;-6.10;99.90
68433;DHT22;55412;51.350;17.056;2023-03-01T05:49:29;-6.10;99.90
68433;DHT22;55412;51.350;17.056;2023-03-01T05:51:57;-6.00;99.90
68433;DHT22;55412;51.350;17.056;2023-03-01T05:54:23;-5.90;99.90
68433;DHT22;55412;51.350;17.056;2023-03-01T05:56:49;-5.90;99.90
68433;DHT22;55412;51.350;17.056;2023-03-01T05:59:15;-5.80;99.90
68433;DHT22;55412;51.350;17.056;2023-03-01T06:01:42;-5.70;99.90
68433;DHT22;55412;51.350;17.056;2023-03-01T06:04:09;-5.60;99.90
68433;DHT22;55412;51.350;17.056;2023-03-01T06:06:36;-5.50;99.90
68433;DHT22;55412;51.350;17.056;2023-03-01T06:09:04;-5.30;99.90
68433;DHT22;55412;51.350;17.056;2023-03-01T06:11:34;-5.20;99.90
68433;DHT22;55412;51.350;17.056;2023-03-01T06:14:01;-5.00;99.90
68433;DHT22;55412;51.350;17.056;2023-03-01T06:16:27;-4.80;99.90
68433;DHT22;55412;51.350;17.056;2023-03-01T06:18:53;-4.60;99.90
68433;DHT22;55412;51.350;17.056;2023-03-01T06:21:19;-4.50;99.90
68433;DHT22;55412;51.350;17.056;2023-03-01T06:23:45;-4.30;99.70
68433;DHT22;55412;51.350;17.056;2023-03-01T06:26:11;-4.20;98.40
68433;DHT22;55412;51.350;17.056;2023-03-01T06:28:37;-4.00;98.00
68433;DHT22;55412;51.350;17.056;2023-03-01T06:31:03;-3.80;97.80
68433;DHT22;55412;51.350;17.056;2023-03-01T06:33:29;-3.60;96.50
68433;DHT22;55412;51.350;17.056;2023-03-01T06:35:56;-3.40;95.20
68433;DHT22;55412;51.350;17.056;2023-03-01T06:38:23;-3.20;94.40
68433;DHT22;55412;51.350;17.056;2023-03-01T06:40:53;-3.00;93.60
68433;DHT22;55412;51.350;17.056;2023-03-01T06:43:21;-2.70;93.80
68433;DHT22;55412;51.350;17.056;2023-03-01T06:45:47;-2.40;93.20
68433;DHT22;55412;51.350;17.056;2023-03-01T06:48:13;-2.10;92.90
68433;DHT22;55412;51.350;17.056;2023-03-01T06:50:39;-1.80;92.40
68433;DHT22;55412;51.350;17.056;2023-03-01T06:53:05;-1.50;90.70
68433;DHT22;55412;51.350;17.056;2023-03-01T06:55:31;-1.20;90.80
68433;DHT22;55412;51.350;17.056;2023-03-01T06:57:59;-0.90;89.80
68433;DHT22;55412;51.350;17.056;2023-03-01T07:00:26;-0.80;85.50
68433;DHT22;55412;51.350;17.056;2023-03-01T07:02:53;-0.70;83.90
68433;DHT22;55412;51.350;17.056;2023-03-01T07:05:19;-0.70;82.90
68433;DHT22;55412;51.350;17.056;2023-03-01T07:07:45;-0.60;81.30
68433;DHT22;55412;51.350;17.056;2023-03-01T07:10:12;-0.50;81.20
68433;DHT22;55412;51.350;17.056;2023-03-01T07:12:38;-0.40;80.90
68433;DHT22;55412;51.350;17.056;2023-03-01T07:15:05;-0.30;80.00
68433;DHT22;55412;51.350;17.056;2023-03-01T07:17:31;-0.10;79.10
68433;DHT22;55412;51.350;17.056;2023-03-01T07:19:57;-0.10;78.40
68433;DHT22;55412;51.350;17.056;2023-03-01T07:22:23;-0.10;78.90
68433;DHT22;55412;51.350;17.056;2023-03-01T07:24:49;0.00;78.10
68433;DHT22;55412;51.350;17.056;2023-03-01T07:27:15;0.00;77.10
68433;DHT22;55412;51.350;17.056;2023-03-01T07:29:41;0.10;78.00
68433;DHT22;55412;51.350;17.056;2023-03-01T07:32:07;0.30;77.60
68433;DHT22;55412;51.350;17.056;2023-03-01T07:34:33;0.40;76.90
68433;DHT22;55412;51.350;17.056;2023-03-01T07:36:59;0.50;77.00
68433;DHT22;55412;51.350;17.056;2023-03-01T07:39:25;0.60;75.10
68433;DHT22;55412;51.350;17.056;2023-03-01T07:41:51;0.50;75.80
68433;DHT22;55412;51.350;17.056;2023-03-01T07:44:17;0.50;75.40
68433;DHT22;55412;51.350;17.056;2023-03-01T07:46:44;0.50;74.10
68433;DHT22;55412;51.350;17.056;2023-03-01T07:49:10;0.60;75.10
68433;DHT22;55412;51.350;17.056;2023-03-01T07:51:36;0.70;75.80
68433;DHT22;55412;51.350;17.056;2023-03-01T07:54:02;0.90;75.80
68433;DHT22;55412;51.350;17.056;2023-03-01T07:56:28;1.20;75.00
68433;DHT22;55412;51.350;17.056;2023-03-01T07:58:54;1.40;74.60
68433;DHT22;55412;51.350;17.056;2023-03-01T08:01:21;1.60;73.60
68433;DHT22;55412;51.350;17.056;2023-03-01T08:03:47;1.80;72.60
68433;DHT22;55412;51.350;17.056;2023-03-01T08:06:16;2.20;71.40
68433;DHT22;55412;51.350;17.056;2023-03-01T08:08:43;2.50;70.40
68433;DHT22;55412;51.350;17.056;2023-03-01T08:11:11;2.70;68.90
68433;DHT22;55412;51.350;17.056;2023-03-01T08:13:38;2.80;69.60
68433;DHT22;55412;51.350;17.056;2023-03-01T08:16:07;2.90;70.30
68433;DHT22;55412;51.350;17.056;2023-03-01T08:18:35;2.80;69.40
68433;DHT22;55412;51.350;17.056;2023-03-01T08:21:13;2.90;69.50
68433;DHT22;55412;51.350;17.056;2023-03-01T08:23:41;3.00;69.00
68433;DHT22;55412;51.350;17.056;2023-03-01T08:26:13;3.00;69.60
68433;DHT22;55412;51.350;17.056;2023-03-01T08:28:41;3.00;68.30
68433;DHT22;55412;51.350;17.056;2023-03-01T08:31:19;3.00;68.00
68433;DHT22;55412;51.350;17.056;2023-03-01T08:33:49;3.10;68.00
68433;DHT22;55412;51.350;17.056;2023-03-01T08:36:31;3.20;69.70
68433;DHT22;55412;51.350;17.056;2023-03-01T08:39:02;3.50;69.00
68433;DHT22;55412;51.350;17.056;2023-03-01T08:41:29;3.70;66.60
68433;DHT22;55412;51.350;17.056;2023-03-01T08:43:55;3.80;66.90
68433;DHT22;55412;51.350;17.056;2023-03-01T08:46:53;4.20;66.10
68433;DHT22;55412;51.350;17.056;2023-03-01T08:49:21;4.70;64.20
68433;DHT22;55412;51.350;17.056;2023-03-01T08:51:47;5.20;64.20
68433;DHT22;55412;51.350;17.056;2023-03-01T08:54:16;5.90;64.20
68433;DHT22;55412;51.350;17.056;2023-03-01T08:56:44;6.80;61.50
68433;DHT22;55412;51.350;17.056;2023-03-01T08:59:13;7.90;58.90
68433;DHT22;55412;51.350;17.056;2023-03-01T09:01:40;9.70;50.80
68433;DHT22;55412;51.350;17.056;2023-03-01T09:04:09;11.80;45.10
68433;DHT22;55412;51.350;17.056;2023-03-01T09:06:37;14.10;40.70
68433;DHT22;55412;51.350;17.056;2023-03-01T09:09:04;16.50;36.50
68433;DHT22;55412;51.350;17.056;2023-03-01T09:11:31;18.10;31.60
68433;DHT22;55412;51.350;17.056;2023-03-01T09:13:58;19.70;32.30
68433;DHT22;55412;51.350;17.056;2023-03-01T09:16:24;21.30;28.10
68433;DHT22;55412;51.350;17.056;2023-03-01T09:18:52;22.00;26.90
68433;DHT22;55412;51.350;17.056;2023-03-01T09:21:21;22.80;25.80
68433;DHT22;55412;51.350;17.056;2023-03-01T09:23:49;23.30;25.30
68433;DHT22;55412;51.350;17.056;2023-03-01T09:26:20;23.50;25.10
68433;DHT22;55412;51.350;17.056;2023-03-01T09:28:51;23.80;24.80
68433;DHT22;55412;51.350;17.056;2023-03-01T09:31:20;24.50;23.70
68433;DHT22;55412;51.350;17.056;2023-03-01T09:33:51;24.60;22.90
68433;DHT22;55412;51.350;17.056;2023-03-01T09:36:20;22.70;24.00
68433;DHT22;55412;51.350;17.056;2023-03-01T09:38:48;21.60;25.50
68433;DHT22;55412;51.350;17.056;2023-03-01T09:41:34;20.40;25.70
68433;DHT22;55412;51.350;17.056;2023-03-01T09:44:34;19.10;26.20
68433;DHT22;55412;51.350;17.056;2023-03-01T09:47:24;18.30;27.20
68433;DHT22;55412;51.350;17.056;2023-03-01T09:50:11;17.60;28.50
68433;DHT22;55412;51.350;17.056;2023-03-01T09:53:01;17.90;28.80
68433;DHT22;55412;51.350;17.056;2023-03-01T09:56:00;17.70;28.10
68433;DHT22;55412;51.350;17.056;2023-03-01T10:02:11;16.60;27.70
68433;DHT22;55412;51.350;17.056;2023-03-01T10:04:45;15.70;30.40
68433;DHT22;55412;51.350;17.056;2023-03-01T10:12:57;16.70;28.10
68433;DHT22;55412;51.350;17.056;2023-03-01T10:15:35;17.60;27.60
68433;DHT22;55412;51.350;17.056;2023-03-01T10:18:16;17.80;27.10
68433;DHT22;55412;51.350;17.056;2023-03-01T10:23:26;16.70;28.00
68433;DHT22;55412;51.350;17.056;2023-03-01T10:28:44;16.20;28.70
68433;DHT22;55412;51.350;17.056;2023-03-01T10:31:19;15.90;29.70
68433;DHT22;55412;51.350;17.056;2023-03-01T10:33:48;15.40;30.10
68433;DHT22;55412;51.350;17.056;2023-03-01T10:36:18;14.90;30.50
68433;DHT22;55412;51.350;17.056;2023-03-01T10:38:53;14.70;32.10
68433;DHT22;55412;51.350;17.056;2023-03-01T10:41:22;15.50;29.90
68433;DHT22;55412;51.350;17.056;2023-03-01T10:43:55;16.40;29.70
68433;DHT22;55412;51.350;17.056;2023-03-01T10:46:30;17.30;28.50
68433;DHT22;55412;51.350;17.056;2023-03-01T10:49:32;17.70;29.20
68433;DHT22;55412;51.350;17.056;2023-03-01T10:52:16;17.50;28.60
68433;DHT22;55412;51.350;17.056;2023-03-01T10:54:58;16.90;27.60
68433;DHT22;55412;51.350;17.056;2023-03-01T10:57:36;16.50;28.70
68433;DHT22;55412;51.350;17.056;2023-03-01T11:00:17;16.70;29.10
68433;DHT22;55412;51.350;17.056;2023-03-01T11:03:10;17.00;28.50
68433;DHT22;55412;51.350;17.056;2023-03-01T11:06:00;17.30;28.70
68433;DHT22;55412;51.350;17.056;2023-03-01T11:08:36;17.80;29.30
68433;DHT22;55412;51.350;17.056;2023-03-01T11:11:06;17.80;27.20
68433;DHT22;55412;51.350;17.056;2023-03-01T11:16:43;18.10;27.50
68433;DHT22;55412;51.350;17.056;2023-03-01T11:27:24;20.90;25.80
68433;DHT22;55412;51.350;17.056;2023-03-01T11:35:32;21.10;25.30
68433;DHT22;55412;51.350;17.056;2023-03-01T11:41:23;21.30;24.90
68433;DHT22;55412;51.350;17.056;2023-03-01T11:44:03;20.40;23.50
68433;DHT22;55412;51.350;17.056;2023-03-01T11:53:29;20.00;26.30
68433;DHT22;55412;51.350;17.056;2023-03-01T11:56:28;20.00;26.80
68433;DHT22;55412;51.350;17.056;2023-03-01T12:11:35;16.60;27.50
68433;DHT22;55412;51.350;17.056;2023-03-01T12:14:08;15.80;28.00
68433;DHT22;55412;51.350;17.056;2023-03-01T12:20:14;13.80;31.40
68433;DHT22;55412;51.350;17.056;2023-03-01T12:29:18;11.70;35.30
68433;DHT22;55412;51.350;17.056;2023-03-01T12:35:11;10.70;36.30
68433;DHT22;55412;51.350;17.056;2023-03-01T12:38:11;10.20;38.20
68433;DHT22;55412;51.350;17.056;2023-03-01T12:46:28;9.40;39.40
68433;DHT22;55412;51.350;17.056;2023-03-01T12:49:11;9.40;38.90
68433;DHT22;55412;51.350;17.056;2023-03-01T12:51:40;9.20;39.70
68433;DHT22;55412;51.350;17.056;2023-03-01T12:54:26;9.10;40.00
68433;DHT22;55412;51.350;17.056;2023-03-01T12:56:55;8.90;39.20
68433;DHT22;55412;51.350;17.056;2023-03-01T12:59:25;8.60;38.90
68433;DHT22;55412;51.350;17.056;2023-03-01T13:02:32;8.60;39.90
68433;DHT22;55412;51.350;17.056;2023-03-01T13:05:15;8.40;40.10
68433;DHT22;55412;51.350;17.056;2023-03-01T13:08:18;8.30;39.90
68433;DHT22;55412;51.350;17.056;2023-03-01T13:10:53;8.20;41.60
68433;DHT22;55412;51.350;17.056;2023-03-01T13:13:24;8.20;42.30
68433;DHT22;55412;51.350;17.056;2023-03-01T13:15:52;8.20;42.30
68433;DHT22;55412;51.350;17.056;2023-03-01T13:20:50;8.10;41.40
68433;DHT22;55412;51.350;17.056;2023-03-01T13:26:12;8.20;42.20
68433;DHT22;55412;51.350;17.056;2023-03-01T13:28:48;8.00;40.40
68433;DHT22;55412;51.350;17.056;2023-03-01T13:33:58;8.10;41.80
68433;DHT22;55412;51.350;17.056;2023-03-01T13:47:16;7.90;42.20
68433;DHT22;55412;51.350;17.056;2023-03-01T13:49:53;8.10;42.30
68433;DHT22;55412;51.350;17.056;2023-03-01T13:52:45;8.10;41.80
68433;DHT22;55412;51.350;17.056;2023-03-01T13:57:43;8.10;42.30
68433;DHT22;55412;51.350;17.056;2023-03-01T14:03:18;7.90;41.30
68433;DHT22;55412;51.350;17.056;2023-03-01T14:09:23;7.90;42.10
68433;DHT22;55412;51.350;17.056;2023-03-01T14:12:39;8.00;42.40
68433;DHT22;55412;51.350;17.056;2023-03-01T14:20:51;8.00;45.20
68433;DHT22;55412;51.350;17.056;2023-03-01T14:23:22;8.00;42.30
68433;DHT22;55412;51.350;17.056;2023-03-01T14:25:57;7.80;41.80
68433;DHT22;55412;51.350;17.056;2023-03-01T14:28:28;7.70;41.40
68433;DHT22;55412;51.350;17.056;2023-03-01T14:30:58;7.50;41.30
68433;DHT22;55412;51.350;17.056;2023-03-01T14:33:32;7.40;41.40
68433;DHT22;55412;51.350;17.056;2023-03-01T14:36:28;7.20;40.70
68433;DHT22;55412;51.350;17.056;2023-03-01T14:38:55;7.00;42.60
68433;DHT22;55412;51.350;17.056;2023-03-01T14:41:27;7.00;42.00
68433;DHT22;55412;51.350;17.056;2023-03-01T14:44:06;7.00;42.70
68433;DHT22;55412;51.350;17.056;2023-03-01T14:46:39;7.00;43.40
68433;DHT22;55412;51.350;17.056;2023-03-01T14:49:28;7.00;44.40
68433;DHT22;55412;51.350;17.056;2023-03-01T14:52:02;6.90;44.20
68433;DHT22;55412;51.350;17.056;2023-03-01T14:54:51;6.90;44.50
68433;DHT22;55412;51.350;17.056;2023-03-01T14:57:22;6.80;45.00
68433;DHT22;55412;51.350;17.056;2023-03-01T14:59:52;6.70;45.50
68433;DHT22;55412;51.350;17.056;2023-03-01T15:02:23;6.70;47.00
68433;DHT22;55412;51.350;17.056;2023-03-01T15:04:54;6.60;46.50
68433;DHT22;55412;51.350;17.056;2023-03-01T15:07:29;6.60;45.80
68433;DHT22;55412;51.350;17.056;2023-03-01T15:09:59;6.50;46.60
68433;DHT22;55412;51.350;17.056;2023-03-01T15:14:57;6.30;46.90
68433;DHT22;55412;51.350;17.056;2023-03-01T15:17:37;6.30;45.80
68433;DHT22;55412;51.350;17.056;2023-03-01T15:20:07;6.20;46.00
68433;DHT22;55412;51.350;17.056;2023-03-01T15:22:44;6.10;45.90
68433;DHT22;55412;51.350;17.056;2023-03-01T15:25:16;6.10;45.70
68433;DHT22;55412;51.350;17.056;2023-03-01T15:27:48;6.00;45.40
68433;DHT22;55412;51.350;17.056;2023-03-01T15:30:23;5.90;45.90
68433;DHT22;55412;51.350;17.056;2023-03-01T15:35:58;5.80;47.10
68433;DHT22;55412;51.350;17.056;2023-03-01T15:41:26;5.60;47.30
68433;DHT22;55412;51.350;17.056;2023-03-01T15:43:54;5.50;48.60
68433;DHT22;55412;51.350;17.056;2023-03-01T15:46:33;5.40;49.10
68433;DHT22;55412;51.350;17.056;2023-03-01T15:49:03;5.30;49.50
68433;DHT22;55412;51.350;17.056;2023-03-01T15:51:35;5.20;49.70
68433;DHT22;55412;51.350;17.056;2023-03-01T15:54:18;5.10;50.30
68433;DHT22;55412;51.350;17.056;2023-03-01T15:56:47;5.00;50.70
68433;DHT22;55412;51.350;17.056;2023-03-01T15:59:13;4.90;51.20
68433;DHT22;55412;51.350;17.056;2023-03-01T16:01:40;4.80;51.50
68433;DHT22;55412;51.350;17.056;2023-03-01T16:04:12;4.70;51.80
68433;DHT22;55412;51.350;17.056;2023-03-01T16:06:46;4.60;51.90
68433;DHT22;55412;51.350;17.056;2023-03-01T16:09:25;4.40;52.00
68433;DHT22;55412;51.350;17.056;2023-03-01T16:11:52;4.30;52.40
68433;DHT22;55412;51.350;17.056;2023-03-01T16:14:19;4.20;53.00
68433;DHT22;55412;51.350;17.056;2023-03-01T16:16:45;4.10;53.30
68433;DHT22;55412;51.350;17.056;2023-03-01T16:19:14;4.00;53.40
68433;DHT22;55412;51.350;17.056;2023-03-01T16:21:41;3.80;55.30
68433;DHT22;55412;51.350;17.056;2023-03-01T16:24:09;3.70;56.50
68433;DHT22;55412;51.350;17.056;2023-03-01T16:26:37;3.50;57.40
68433;DHT22;55412;51.350;17.056;2023-03-01T16:29:03;3.30;58.10
68433;DHT22;55412;51.350;17.056;2023-03-01T16:31:29;3.20;58.30
68433;DHT22;55412;51.350;17.056;2023-03-01T16:33:57;3.10;59.20
68433;DHT22;55412;51.350;17.056;2023-03-01T16:36:26;2.90;59.80
68433;DHT22;55412;51.350;17.056;2023-03-01T16:38:55;2.70;60.70
68433;DHT22;55412;51.350;17.056;2023-03-01T16:41:24;2.60;61.40
68433;DHT22;55412;51.350;17.056;2023-03-01T16:43:50;2.50;61.60
68433;DHT22;55412;51.350;17.056;2023-03-01T16:46:22;2.40;61.90
68433;DHT22;55412;51.350;17.056;2023-03-01T16:48:53;2.20;63.70
68433;DHT22;55412;51.350;17.056;2023-03-01T16:51:20;2.00;64.40
68433;DHT22;55412;51.350;17.056;2023-03-01T16:53:48;1.90;64.90
68433;DHT22;55412;51.350;17.056;2023-03-01T16:59:56;1.60;64.90
68433;DHT22;55412;51.350;17.056;2023-03-01T17:02:22;1.50;65.10
68433;DHT22;55412;51.350;17.056;2023-03-01T17:04:52;1.30;66.80
68433;DHT22;55412;51.350;17.056;2023-03-01T17:07:19;1.20;66.70
68433;DHT22;55412;51.350;17.056;2023-03-01T17:09:45;1.10;68.40
68433;DHT22;55412;51.350;17.056;2023-03-01T17:12:15;1.00;69.10
68433;DHT22;55412;51.350;17.056;2023-03-01T17:14:42;0.80;69.10
68433;DHT22;55412;51.350;17.056;2023-03-01T17:17:09;0.80;68.70
68433;DHT22;55412;51.350;17.056;2023-03-01T17:19:36;0.70;68.30
68433;DHT22;55412;51.350;17.056;2023-03-01T17:22:09;0.60;68.50
68433;DHT22;55412;51.350;17.056;2023-03-01T17:24:38;0.50;67.60
68433;DHT22;55412;51.350;17.056;2023-03-01T17:27:06;0.40;69.70
68433;DHT22;55412;51.350;17.056;2023-03-01T17:29:32;0.30;71.10
68433;DHT22;55412;51.350;17.056;2023-03-01T17:31:59;0.20;72.20
68433;DHT22;55412;51.350;17.056;2023-03-01T17:34:25;0.20;72.60
68433;DHT22;55412;51.350;17.056;2023-03-01T17:36:52;0.10;72.70
68433;DHT22;55412;51.350;17.056;2023-03-01T17:39:19;0.00;74.20
68433;DHT22;55412;51.350;17.056;2023-03-01T17:41:50;-0.10;74.60
68433;DHT22;55412;51.350;17.056;2023-03-01T17:44:17;-0.10;75.40
68433;DHT22;55412;51.350;17.056;2023-03-01T17:46:43;-0.20;76.20
68433;DHT22;55412;51.350;17.056;2023-03-01T17:49:09;-0.30;76.80
68433;DHT22;55412;51.350;17.056;2023-03-01T17:51:35;-0.40;77.30